sensor_id;sensor_type;location;lat;lon;timestamp;temperature;humidity
16321;DHT22;8269;50.990;4.494;2022-08-02T00:01:39;18.80;90.70
16321;DHT22;8269;50.990;4.494;2022-08-02T00:04:05;18.80;90.90
16321;DHT22;8269;50.990;4.494;2022-08-02T00:06:31;18.90;91.00
16321;DHT22;8269;50.990;4.494;2022-08-02T00:08:57;19.00;91.00
16321;DHT22;8269;50.990;4.494;2022-08-02T00:11:23;19.00;90.80
16321;DHT22;8269;50.990;4.494;2022-08-02T00:13:48;18.90;91.00
16321;DHT22;8269;50.990;4.494;2022-08-02T00:16:14;18.90;90.80
16321;DHT22;8269;50.990;4.494;2022-08-02T00:18:40;18.80;90.70
16321;DHT22;8269;50.990;4.494;2022-08-02T00:21:05;18.80;90.60
16321;DHT22;8269;50.990;4.494;2022-08-02T00:23:31;18.80;90.60
16321;DHT22;8269;50.990;4.494;2022-08-02T00:25:57;18.70;90.50
16321;DHT22;8269;50.990;4.494;2022-08-02T00:28:23;18.70;90.60
16321;DHT22;8269;50.990;4.494;2022-08-02T00:30:49;18.70;90.50
16321;DHT22;8269;50.990;4.494;2022-08-02T00:33:15;18.60;90.60
16321;DHT22;8269;50.990;4.494;2022-08-02T00:35:41;18.60;90.50
16321;DHT22;8269;50.990;4.494;2022-08-02T00:38:06;18.60;90.60
16321;DHT22;8269;50.990;4.494;2022-08-02T00:40:32;18.70;90.50
16321;DHT22;8269;50.990;4.494;2022-08-02T00:43:09;18.70;90.50
16321;DHT22;8269;50.990;4.494;2022-08-02T00:45:40;18.70;90.50
16321;DHT22;8269;50.990;4.494;2022-08-02T00:48:07;18.50;90.50
16321;DHT22;8269;50.990;4.494;2022-08-02T00:50:33;18.50;90.80
16321;DHT22;8269;50.990;4.494;2022-08-02T00:52:59;18.60;90.90
16321;DHT22;8269;50.990;4.494;2022-08-02T00:55:26;18.60;90.80
16321;DHT22;8269;50.990;4.494;2022-08-02T00:57:53;18.60;91.00
16321;DHT22;8269;50.990;4.494;2022-08-02T01:00:19;18.50;91.10
16321;DHT22;8269;50.990;4.494;2022-08-02T01:02:45;18.50;91.30
16321;DHT22;8269;50.990;4.494;2022-08-02T01:05:12;18.50;91.30
16321;DHT22;8269;50.990;4.494;2022-08-02T01:07:38;18.50;91.20
16321;DHT22;8269;50.990;4.494;2022-08-02T01:10:04;18.60;91.20
16321;DHT22;8269;50.990;4.494;2022-08-02T01:12:30;18.60;91.10
16321;DHT22;8269;50.990;4.494;2022-08-02T01:14:59;18.60;91.00
16321;DHT22;8269;50.990;4.494;2022-08-02T01:20:17;18.70;91.00
16321;DHT22;8269;50.990;4.494;2022-08-02T01:33:40;18.60;91.30
16321;DHT22;8269;50.990;4.494;2022-08-02T01:36:11;18.60;91.20
16321;DHT22;8269;50.990;4.494;2022-08-02T01:38:41;18.60;91.30
16321;DHT22;8269;50.990;4.494;2022-08-02T01:41:13;18.50;91.30
16321;DHT22;8269;50.990;4.494;2022-08-02T01:43:41;18.50;91.50
16321;DHT22;8269;50.990;4.494;2022-08-02T01:46:10;18.40;91.60
16321;DHT22;8269;50.990;4.494;2022-08-02T01:48:40;18.30;91.80
16321;DHT22;8269;50.990;4.494;2022-08-02T01:51:07;18.20;92.10
16321;DHT22;8269;50.990;4.494;2022-08-02T01:53:34;18.10;92.30
16321;DHT22;8269;50.990;4.494;2022-08-02T01:56:00;18.00;92.70
16321;DHT22;8269;50.990;4.494;2022-08-02T01:58:30;18.00;93.00
16321;DHT22;8269;50.990;4.494;2022-08-02T02:01:00;17.90;93.20
16321;DHT22;8269;50.990;4.494;2022-08-02T02:03:26;17.90;93.50
16321;DHT22;8269;50.990;4.494;2022-08-02T02:05:56;18.00;93.60
16321;DHT22;8269;50.990;4.494;2022-08-02T02:08:29;18.00;93.60
16321;DHT22;8269;50.990;4.494;2022-08-02T02:10:56;18.10;93.60
16321;DHT22;8269;50.990;4.494;2022-08-02T02:13:24;18.10;93.60
16321;DHT22;8269;50.990;4.494;2022-08-02T02:15:51;18.20;93.50
16321;DHT22;8269;50.990;4.494;2022-08-02T02:18:23;18.20;93.30
16321;DHT22;8269;50.990;4.494;2022-08-02T02:20:50;18.10;93.60
16321;DHT22;8269;50.990;4.494;2022-08-02T02:23:16;18.00;93.70
16321;DHT22;8269;50.990;4.494;2022-08-02T02:25:44;18.00;93.90
16321;DHT22;8269;50.990;4.494;2022-08-02T02:30:47;17.80;94.20
16321;DHT22;8269;50.990;4.494;2022-08-02T02:33:17;17.80;94.50
16321;DHT22;8269;50.990;4.494;2022-08-02T02:35:45;17.90;94.70
16321;DHT22;8269;50.990;4.494;2022-08-02T02:38:13;17.90;94.80
16321;DHT22;8269;50.990;4.494;2022-08-02T02:40:41;17.80;94.70
16321;DHT22;8269;50.990;4.494;2022-08-02T02:43:10;17.90;94.70
16321;DHT22;8269;50.990;4.494;2022-08-02T02:45:37;17.90;94.60
16321;DHT22;8269;50.990;4.494;2022-08-02T02:48:04;17.90;94.60
16321;DHT22;8269;50.990;4.494;2022-08-02T02:50:32;17.80;94.70
16321;DHT22;8269;50.990;4.494;2022-08-02T02:52:59;17.70;94.90
16321;DHT22;8269;50.990;4.494;2022-08-02T02:55:26;17.70;95.10
16321;DHT22;8269;50.990;4.494;2022-08-02T02:57:54;17.70;95.30
16321;DHT22;8269;50.990;4.494;2022-08-02T03:00:21;17.60;95.30
16321;DHT22;8269;50.990;4.494;2022-08-02T03:03:07;17.60;95.50
16321;DHT22;8269;50.990;4.494;2022-08-02T03:05:34;17.60;95.60
16321;DHT22;8269;50.990;4.494;2022-08-02T03:08:01;17.50;95.80
16321;DHT22;8269;50.990;4.494;2022-08-02T03:10:27;17.50;96.00
16321;DHT22;8269;50.990;4.494;2022-08-02T03:12:53;17.50;96.10
16321;DHT22;8269;50.990;4.494;2022-08-02T03:15:20;17.50;96.00
16321;DHT22;8269;50.990;4.494;2022-08-02T03:17:46;17.40;96.10
16321;DHT22;8269;50.990;4.494;2022-08-02T03:20:17;17.40;96.40
16321;DHT22;8269;50.990;4.494;2022-08-02T03:22:44;17.30;96.50
16321;DHT22;8269;50.990;4.494;2022-08-02T03:25:11;17.20;96.80
16321;DHT22;8269;50.990;4.494;2022-08-02T03:27:37;17.10;97.00
16321;DHT22;8269;50.990;4.494;2022-08-02T03:30:05;17.10;97.30
16321;DHT22;8269;50.990;4.494;2022-08-02T03:32:35;17.00;97.40
16321;DHT22;8269;50.990;4.494;2022-08-02T03:35:01;17.00;97.70
16321;DHT22;8269;50.990;4.494;2022-08-02T03:37:29;17.00;97.70
16321;DHT22;8269;50.990;4.494;2022-08-02T03:39:56;17.00;97.90
16321;DHT22;8269;50.990;4.494;2022-08-02T03:42:22;16.90;98.20
16321;DHT22;8269;50.990;4.494;2022-08-02T03:44:49;16.90;98.50
16321;DHT22;8269;50.990;4.494;2022-08-02T03:47:16;16.90;98.70
16321;DHT22;8269;50.990;4.494;2022-08-02T03:49:43;17.00;98.80
16321;DHT22;8269;50.990;4.494;2022-08-02T03:52:09;17.10;98.80
16321;DHT22;8269;50.990;4.494;2022-08-02T03:54:36;17.10;98.60
16321;DHT22;8269;50.990;4.494;2022-08-02T03:57:04;17.20;98.50
16321;DHT22;8269;50.990;4.494;2022-08-02T03:59:39;17.30;98.40
16321;DHT22;8269;50.990;4.494;2022-08-02T04:02:06;17.30;98.30
16321;DHT22;8269;50.990;4.494;2022-08-02T04:04:33;17.40;98.20
16321;DHT22;8269;50.990;4.494;2022-08-02T04:06:59;17.50;98.00
16321;DHT22;8269;50.990;4.494;2022-08-02T04:09:24;17.50;97.80
16321;DHT22;8269;50.990;4.494;2022-08-02T04:11:50;17.60;97.70
16321;DHT22;8269;50.990;4.494;2022-08-02T04:14:15;17.60;97.60
16321;DHT22;8269;50.990;4.494;2022-08-02T04:16:49;17.60;97.50
16321;DHT22;8269;50.990;4.494;2022-08-02T04:19:25;17.60;97.50
16321;DHT22;8269;50.990;4.494;2022-08-02T04:21:53;17.60;97.70
16321;DHT22;8269;50.990;4.494;2022-08-02T04:24:27;17.70;97.60
16321;DHT22;8269;50.990;4.494;2022-08-02T04:26:58;17.80;97.50
16321;DHT22;8269;50.990;4.494;2022-08-02T04:29:25;17.80;97.30
16321;DHT22;8269;50.990;4.494;2022-08-02T04:31:52;17.80;97.20
16321;DHT22;8269;50.990;4.494;2022-08-02T04:34:19;17.90;97.30
16321;DHT22;8269;50.990;4.494;2022-08-02T04:36:45;17.90;97.10
16321;DHT22;8269;50.990;4.494;2022-08-02T04:39:11;18.00;97.10
16321;DHT22;8269;50.990;4.494;2022-08-02T04:41:41;18.10;96.90
16321;DHT22;8269;50.990;4.494;2022-08-02T04:44:08;18.30;96.50
16321;DHT22;8269;50.990;4.494;2022-08-02T04:46:35;18.30;96.10
16321;DHT22;8269;50.990;4.494;2022-08-02T04:49:01;18.30;96.10
16321;DHT22;8269;50.990;4.494;2022-08-02T04:51:27;18.20;96.10
16321;DHT22;8269;50.990;4.494;2022-08-02T04:53:52;18.20;96.30
16321;DHT22;8269;50.990;4.494;2022-08-02T04:56:18;18.20;96.40
16321;DHT22;8269;50.990;4.494;2022-08-02T04:58:45;18.40;96.40
16321;DHT22;8269;50.990;4.494;2022-08-02T05:01:10;18.80;95.80
16321;DHT22;8269;50.990;4.494;2022-08-02T05:03:36;19.20;94.50
16321;DHT22;8269;50.990;4.494;2022-08-02T05:06:02;19.40;94.00
16321;DHT22;8269;50.990;4.494;2022-08-02T05:08:28;19.70;93.40
16321;DHT22;8269;50.990;4.494;2022-08-02T05:10:54;20.20;92.30
16321;DHT22;8269;50.990;4.494;2022-08-02T05:13:21;20.70;91.30
16321;DHT22;8269;50.990;4.494;2022-08-02T05:15:49;21.10;89.90
16321;DHT22;8269;50.990;4.494;2022-08-02T05:18:15;21.30;87.40
16321;DHT22;8269;50.990;4.494;2022-08-02T05:20:41;21.50;86.00
16321;DHT22;8269;50.990;4.494;2022-08-02T05:23:07;21.70;85.60
16321;DHT22;8269;50.990;4.494;2022-08-02T05:25:34;21.70;84.60
16321;DHT22;8269;50.990;4.494;2022-08-02T05:27:59;21.70;84.30
16321;DHT22;8269;50.990;4.494;2022-08-02T05:30:25;21.50;85.00
16321;DHT22;8269;50.990;4.494;2022-08-02T05:32:51;21.20;86.70
16321;DHT22;8269;50.990;4.494;2022-08-02T05:35:18;21.10;87.90
16321;DHT22;8269;50.990;4.494;2022-08-02T05:37:45;21.00;88.00
16321;DHT22;8269;50.990;4.494;2022-08-02T05:40:11;21.00;88.30
16321;DHT22;8269;50.990;4.494;2022-08-02T05:42:37;20.90;89.00
16321;DHT22;8269;50.990;4.494;2022-08-02T05:45:03;20.90;89.20
16321;DHT22;8269;50.990;4.494;2022-08-02T05:47:29;21.20;89.20
16321;DHT22;8269;50.990;4.494;2022-08-02T05:49:55;21.40;88.40
16321;DHT22;8269;50.990;4.494;2022-08-02T05:52:24;22.20;86.80
16321;DHT22;8269;50.990;4.494;2022-08-02T05:55:06;22.40;84.70
16321;DHT22;8269;50.990;4.494;2022-08-02T06:00:19;22.90;80.80
16321;DHT22;8269;50.990;4.494;2022-08-02T06:05:49;23.30;79.70
16321;DHT22;8269;50.990;4.494;2022-08-02T06:08:15;23.50;78.90
16321;DHT22;8269;50.990;4.494;2022-08-02T06:10:44;23.80;77.80
16321;DHT22;8269;50.990;4.494;2022-08-02T06:13:12;24.20;76.10
16321;DHT22;8269;50.990;4.494;2022-08-02T06:15:39;24.50;73.40
16321;DHT22;8269;50.990;4.494;2022-08-02T06:18:07;24.40;73.30
16321;DHT22;8269;50.990;4.494;2022-08-02T06:20:34;24.30;72.70
16321;DHT22;8269;50.990;4.494;2022-08-02T06:23:07;23.80;73.10
16321;DHT22;8269;50.990;4.494;2022-08-02T06:25:34;23.50;73.60
16321;DHT22;8269;50.990;4.494;2022-08-02T06:28:03;24.00;74.20
16321;DHT22;8269;50.990;4.494;2022-08-02T06:30:30;24.50;71.70
16321;DHT22;8269;50.990;4.494;2022-08-02T06:32:56;24.50;70.70
16321;DHT22;8269;50.990;4.494;2022-08-02T06:35:26;24.90;69.60
16321;DHT22;8269;50.990;4.494;2022-08-02T06:37:59;24.90;67.30
16321;DHT22;8269;50.990;4.494;2022-08-02T06:43:12;25.10;64.80
16321;DHT22;8269;50.990;4.494;2022-08-02T06:45:40;25.10;63.90
16321;DHT22;8269;50.990;4.494;2022-08-02T06:48:08;25.30;63.60
16321;DHT22;8269;50.990;4.494;2022-08-02T06:50:34;25.40;62.30
16321;DHT22;8269;50.990;4.494;2022-08-02T06:53:03;25.30;62.20
16321;DHT22;8269;50.990;4.494;2022-08-02T06:55:29;25.20;60.50
16321;DHT22;8269;50.990;4.494;2022-08-02T06:57:57;25.30;60.20
16321;DHT22;8269;50.990;4.494;2022-08-02T07:00:22;25.20;59.80
16321;DHT22;8269;50.990;4.494;2022-08-02T07:02:49;25.50;59.10
16321;DHT22;8269;50.990;4.494;2022-08-02T07:05:15;25.60;59.80
16321;DHT22;8269;50.990;4.494;2022-08-02T07:07:41;25.80;58.80
16321;DHT22;8269;50.990;4.494;2022-08-02T07:10:07;25.50;59.10
16321;DHT22;8269;50.990;4.494;2022-08-02T07:12:33;25.20;60.50
16321;DHT22;8269;50.990;4.494;2022-08-02T07:15:00;25.20;60.50
16321;DHT22;8269;50.990;4.494;2022-08-02T07:17:27;25.10;60.00
16321;DHT22;8269;50.990;4.494;2022-08-02T07:19:53;24.90;61.50
16321;DHT22;8269;50.990;4.494;2022-08-02T07:22:18;25.00;61.80
16321;DHT22;8269;50.990;4.494;2022-08-02T07:24:47;25.30;60.80
16321;DHT22;8269;50.990;4.494;2022-08-02T07:27:13;25.60;59.90
16321;DHT22;8269;50.990;4.494;2022-08-02T07:29:39;25.90;58.20
16321;DHT22;8269;50.990;4.494;2022-08-02T07:32:05;25.60;59.00
16321;DHT22;8269;50.990;4.494;2022-08-02T07:34:31;25.80;58.70
16321;DHT22;8269;50.990;4.494;2022-08-02T07:36:56;25.60;58.90
16321;DHT22;8269;50.990;4.494;2022-08-02T07:39:22;26.10;58.70
16321;DHT22;8269;50.990;4.494;2022-08-02T07:41:48;26.10;58.10
16321;DHT22;8269;50.990;4.494;2022-08-02T07:44:17;26.30;57.70
16321;DHT22;8269;50.990;4.494;2022-08-02T07:46:42;26.40;57.20
16321;DHT22;8269;50.990;4.494;2022-08-02T07:49:09;26.30;56.70
16321;DHT22;8269;50.990;4.494;2022-08-02T07:51:35;26.00;57.10
16321;DHT22;8269;50.990;4.494;2022-08-02T07:54:01;26.00;57.30
16321;DHT22;8269;50.990;4.494;2022-08-02T07:56:27;25.90;57.20
16321;DHT22;8269;50.990;4.494;2022-08-02T07:58:52;26.00;57.00
16321;DHT22;8269;50.990;4.494;2022-08-02T08:01:19;26.00;56.80
16321;DHT22;8269;50.990;4.494;2022-08-02T08:03:44;26.40;56.40
16321;DHT22;8269;50.990;4.494;2022-08-02T08:06:10;27.00;55.90
16321;DHT22;8269;50.990;4.494;2022-08-02T08:08:36;26.90;54.90
16321;DHT22;8269;50.990;4.494;2022-08-02T08:11:02;26.90;54.80
16321;DHT22;8269;50.990;4.494;2022-08-02T08:13:28;26.80;54.20
16321;DHT22;8269;50.990;4.494;2022-08-02T08:15:53;26.70;54.20
16321;DHT22;8269;50.990;4.494;2022-08-02T08:18:22;26.70;54.20
16321;DHT22;8269;50.990;4.494;2022-08-02T08:20:47;26.60;53.80
16321;DHT22;8269;50.990;4.494;2022-08-02T08:23:13;26.70;53.50
16321;DHT22;8269;50.990;4.494;2022-08-02T08:25:39;26.70;53.40
16321;DHT22;8269;50.990;4.494;2022-08-02T08:28:04;27.30;53.00
16321;DHT22;8269;50.990;4.494;2022-08-02T08:30:30;27.30;52.20
16321;DHT22;8269;50.990;4.494;2022-08-02T08:32:56;27.60;52.40
16321;DHT22;8269;50.990;4.494;2022-08-02T08:35:21;27.50;52.00
16321;DHT22;8269;50.990;4.494;2022-08-02T08:37:47;27.20;52.40
16321;DHT22;8269;50.990;4.494;2022-08-02T08:40:14;26.90;52.90
16321;DHT22;8269;50.990;4.494;2022-08-02T08:42:40;27.00;53.50
16321;DHT22;8269;50.990;4.494;2022-08-02T08:45:06;27.30;53.60
16321;DHT22;8269;50.990;4.494;2022-08-02T08:47:37;27.50;53.00
16321;DHT22;8269;50.990;4.494;2022-08-02T08:50:08;27.60;52.90
16321;DHT22;8269;50.990;4.494;2022-08-02T08:52:41;28.10;51.30
16321;DHT22;8269;50.990;4.494;2022-08-02T08:55:09;27.70;51.60
16321;DHT22;8269;50.990;4.494;2022-08-02T08:57:42;27.70;51.30
16321;DHT22;8269;50.990;4.494;2022-08-02T09:00:10;27.60;51.10
16321;DHT22;8269;50.990;4.494;2022-08-02T09:02:40;27.40;52.40
16321;DHT22;8269;50.990;4.494;2022-08-02T09:05:09;27.70;52.30
16321;DHT22;8269;50.990;4.494;2022-08-02T09:07:35;27.80;51.60
16321;DHT22;8269;50.990;4.494;2022-08-02T09:15:30;28.10;51.50
16321;DHT22;8269;50.990;4.494;2022-08-02T09:17:56;28.20;51.30
16321;DHT22;8269;50.990;4.494;2022-08-02T09:20:22;28.10;51.00
16321;DHT22;8269;50.990;4.494;2022-08-02T09:23:08;27.70;51.70
16321;DHT22;8269;50.990;4.494;2022-08-02T09:25:34;27.10;52.90
16321;DHT22;8269;50.990;4.494;2022-08-02T09:28:04;26.80;53.20
16321;DHT22;8269;50.990;4.494;2022-08-02T09:30:30;26.90;54.00
16321;DHT22;8269;50.990;4.494;2022-08-02T09:32:56;27.20;54.20
16321;DHT22;8269;50.990;4.494;2022-08-02T09:35:36;27.50;53.20
16321;DHT22;8269;50.990;4.494;2022-08-02T09:38:12;28.10;51.40
16321;DHT22;8269;50.990;4.494;2022-08-02T09:40:39;28.40;50.00
16321;DHT22;8269;50.990;4.494;2022-08-02T09:43:06;28.50;48.90
16321;DHT22;8269;50.990;4.494;2022-08-02T09:45:33;28.20;50.10
16321;DHT22;8269;50.990;4.494;2022-08-02T09:48:06;27.90;51.50
16321;DHT22;8269;50.990;4.494;2022-08-02T09:50:33;27.50;52.00
16321;DHT22;8269;50.990;4.494;2022-08-02T09:53:01;26.90;51.80
16321;DHT22;8269;50.990;4.494;2022-08-02T09:55:27;26.70;52.80
16321;DHT22;8269;50.990;4.494;2022-08-02T09:57:53;26.90;53.00
16321;DHT22;8269;50.990;4.494;2022-08-02T10:00:19;27.00;53.00
16321;DHT22;8269;50.990;4.494;2022-08-02T10:03:05;27.10;52.40
16321;DHT22;8269;50.990;4.494;2022-08-02T10:05:48;27.20;53.30
16321;DHT22;8269;50.990;4.494;2022-08-02T10:08:14;27.40;53.50
16321;DHT22;8269;50.990;4.494;2022-08-02T10:10:40;27.60;52.00
16321;DHT22;8269;50.990;4.494;2022-08-02T10:13:07;27.50;51.70
16321;DHT22;8269;50.990;4.494;2022-08-02T10:15:33;27.50;51.70
16321;DHT22;8269;50.990;4.494;2022-08-02T10:17:58;27.50;50.60
16321;DHT22;8269;50.990;4.494;2022-08-02T10:20:25;27.40;49.80
16321;DHT22;8269;50.990;4.494;2022-08-02T10:22:52;27.40;50.50
16321;DHT22;8269;50.990;4.494;2022-08-02T10:25:19;27.60;50.80
16321;DHT22;8269;50.990;4.494;2022-08-02T10:27:45;27.70;50.30
16321;DHT22;8269;50.990;4.494;2022-08-02T10:30:11;27.60;51.40
16321;DHT22;8269;50.990;4.494;2022-08-02T10:32:40;27.70;51.60
16321;DHT22;8269;50.990;4.494;2022-08-02T10:37:35;28.00;51.50
16321;DHT22;8269;50.990;4.494;2022-08-02T10:40:04;27.90;51.40
16321;DHT22;8269;50.990;4.494;2022-08-02T10:42:50;27.80;50.90
16321;DHT22;8269;50.990;4.494;2022-08-02T10:45:19;27.90;50.60
16321;DHT22;8269;50.990;4.494;2022-08-02T10:48:10;28.20;50.10
16321;DHT22;8269;50.990;4.494;2022-08-02T10:53:42;28.10;50.60
16321;DHT22;8269;50.990;4.494;2022-08-02T10:56:08;28.20;50.60
16321;DHT22;8269;50.990;4.494;2022-08-02T10:58:33;28.20;50.10
16321;DHT22;8269;50.990;4.494;2022-08-02T11:01:04;28.20;50.10
16321;DHT22;8269;50.990;4.494;2022-08-02T11:06:05;28.10;50.50
16321;DHT22;8269;50.990;4.494;2022-08-02T11:14:04;27.80;49.00
16321;DHT22;8269;50.990;4.494;2022-08-02T11:19:24;28.10;49.20
16321;DHT22;8269;50.990;4.494;2022-08-02T11:22:20;28.30;70.00
16321;DHT22;8269;50.990;4.494;2022-08-02T11:24:45;28.40;71.10
16321;DHT22;8269;50.990;4.494;2022-08-02T11:27:20;28.50;48.80
16321;DHT22;8269;50.990;4.494;2022-08-02T11:29:47;28.30;49.30
16321;DHT22;8269;50.990;4.494;2022-08-02T11:32:21;28.30;49.60
16321;DHT22;8269;50.990;4.494;2022-08-02T11:34:49;28.40;49.30
16321;DHT22;8269;50.990;4.494;2022-08-02T11:37:32;28.30;48.90
16321;DHT22;8269;50.990;4.494;2022-08-02T11:40:00;28.40;49.20
16321;DHT22;8269;50.990;4.494;2022-08-02T11:42:33;28.40;48.90
16321;DHT22;8269;50.990;4.494;2022-08-02T11:45:01;28.40;48.40
16321;DHT22;8269;50.990;4.494;2022-08-02T11:47:27;28.20;48.20
16321;DHT22;8269;50.990;4.494;2022-08-02T11:50:06;28.30;48.50
16321;DHT22;8269;50.990;4.494;2022-08-02T11:52:33;28.30;48.60
16321;DHT22;8269;50.990;4.494;2022-08-02T11:55:00;28.30;48.80
16321;DHT22;8269;50.990;4.494;2022-08-02T11:57:26;28.20;49.10
16321;DHT22;8269;50.990;4.494;2022-08-02T11:59:54;28.20;48.50
16321;DHT22;8269;50.990;4.494;2022-08-02T12:02:26;28.40;47.90
16321;DHT22;8269;50.990;4.494;2022-08-02T12:04:53;28.40;47.70
16321;DHT22;8269;50.990;4.494;2022-08-02T12:07:26;28.30;48.10
16321;DHT22;8269;50.990;4.494;2022-08-02T12:09:51;28.40;48.30
16321;DHT22;8269;50.990;4.494;2022-08-02T12:12:17;28.40;48.30
16321;DHT22;8269;50.990;4.494;2022-08-02T12:14:43;28.60;48.40
16321;DHT22;8269;50.990;4.494;2022-08-02T12:17:09;28.90;48.00
16321;DHT22;8269;50.990;4.494;2022-08-02T12:19:53;28.90;47.30
16321;DHT22;8269;50.990;4.494;2022-08-02T12:22:24;29.00;47.10
16321;DHT22;8269;50.990;4.494;2022-08-02T12:24:52;29.00;47.10
16321;DHT22;8269;50.990;4.494;2022-08-02T12:30:05;28.80;47.40
16321;DHT22;8269;50.990;4.494;2022-08-02T12:32:32;28.60;48.10
16321;DHT22;8269;50.990;4.494;2022-08-02T12:37:41;28.70;48.30
16321;DHT22;8269;50.990;4.494;2022-08-02T12:40:25;28.90;48.20
16321;DHT22;8269;50.990;4.494;2022-08-02T12:43:03;28.70;48.40
16321;DHT22;8269;50.990;4.494;2022-08-02T12:45:43;28.60;48.70
16321;DHT22;8269;50.990;4.494;2022-08-02T12:48:09;28.60;48.70
16321;DHT22;8269;50.990;4.494;2022-08-02T12:50:35;28.50;49.30
16321;DHT22;8269;50.990;4.494;2022-08-02T12:53:16;28.70;49.60
16321;DHT22;8269;50.990;4.494;2022-08-02T12:55:53;28.90;49.30
16321;DHT22;8269;50.990;4.494;2022-08-02T12:58:19;28.80;48.50
16321;DHT22;8269;50.990;4.494;2022-08-02T13:00:54;28.80;48.80
16321;DHT22;8269;50.990;4.494;2022-08-02T13:03:20;28.80;49.00
16321;DHT22;8269;50.990;4.494;2022-08-02T13:05:46;28.90;49.20
16321;DHT22;8269;50.990;4.494;2022-08-02T13:08:13;28.90;49.30
16321;DHT22;8269;50.990;4.494;2022-08-02T13:10:38;28.90;49.00
16321;DHT22;8269;50.990;4.494;2022-08-02T13:13:04;28.90;48.90
16321;DHT22;8269;50.990;4.494;2022-08-02T13:15:30;28.90;49.20
16321;DHT22;8269;50.990;4.494;2022-08-02T13:17:56;28.90;49.00
16321;DHT22;8269;50.990;4.494;2022-08-02T13:20:24;28.90;49.20
16321;DHT22;8269;50.990;4.494;2022-08-02T13:22:52;28.90;49.10
16321;DHT22;8269;50.990;4.494;2022-08-02T13:25:18;28.90;49.10
16321;DHT22;8269;50.990;4.494;2022-08-02T13:27:49;28.90;50.40
16321;DHT22;8269;50.990;4.494;2022-08-02T13:30:15;29.10;49.40
16321;DHT22;8269;50.990;4.494;2022-08-02T13:32:41;29.10;49.30
16321;DHT22;8269;50.990;4.494;2022-08-02T13:35:07;29.20;49.40
16321;DHT22;8269;50.990;4.494;2022-08-02T13:37:34;29.10;49.10
16321;DHT22;8269;50.990;4.494;2022-08-02T13:40:00;28.90;49.60
16321;DHT22;8269;50.990;4.494;2022-08-02T13:42:26;29.10;49.80
16321;DHT22;8269;50.990;4.494;2022-08-02T13:44:51;29.20;50.40
16321;DHT22;8269;50.990;4.494;2022-08-02T13:47:17;29.30;49.50
16321;DHT22;8269;50.990;4.494;2022-08-02T13:49:43;29.10;49.70
16321;DHT22;8269;50.990;4.494;2022-08-02T13:52:08;29.20;50.40
16321;DHT22;8269;50.990;4.494;2022-08-02T13:54:34;29.30;49.90
16321;DHT22;8269;50.990;4.494;2022-08-02T13:57:00;29.30;49.50
16321;DHT22;8269;50.990;4.494;2022-08-02T13:59:26;29.10;49.90
16321;DHT22;8269;50.990;4.494;2022-08-02T14:01:53;29.10;50.10
16321;DHT22;8269;50.990;4.494;2022-08-02T14:04:21;29.20;49.70
16321;DHT22;8269;50.990;4.494;2022-08-02T14:06:47;29.20;50.40
16321;DHT22;8269;50.990;4.494;2022-08-02T14:09:12;29.30;50.40
16321;DHT22;8269;50.990;4.494;2022-08-02T14:11:38;29.30;50.00
16321;DHT22;8269;50.990;4.494;2022-08-02T14:14:04;29.20;50.40
16321;DHT22;8269;50.990;4.494;2022-08-02T14:16:29;29.10;50.40
16321;DHT22;8269;50.990;4.494;2022-08-02T14:18:55;29.20;50.90
16321;DHT22;8269;50.990;4.494;2022-08-02T14:21:22;29.30;49.60
16321;DHT22;8269;50.990;4.494;2022-08-02T14:23:47;29.30;50.50
16321;DHT22;8269;50.990;4.494;2022-08-02T14:26:13;29.30;50.30
16321;DHT22;8269;50.990;4.494;2022-08-02T14:28:39;29.30;49.80
16321;DHT22;8269;50.990;4.494;2022-08-02T14:31:05;29.40;50.40
16321;DHT22;8269;50.990;4.494;2022-08-02T14:33:30;29.60;50.00
16321;DHT22;8269;50.990;4.494;2022-08-02T14:35:56;29.60;50.00
16321;DHT22;8269;50.990;4.494;2022-08-02T14:38:22;29.60;52.20
16321;DHT22;8269;50.990;4.494;2022-08-02T14:40:49;29.60;49.90
16321;DHT22;8269;50.990;4.494;2022-08-02T14:43:15;29.60;49.90
16321;DHT22;8269;50.990;4.494;2022-08-02T14:46:01;29.50;49.40
16321;DHT22;8269;50.990;4.494;2022-08-02T14:48:28;29.40;50.30
16321;DHT22;8269;50.990;4.494;2022-08-02T14:50:53;29.30;50.40
16321;DHT22;8269;50.990;4.494;2022-08-02T14:53:19;29.40;50.10
16321;DHT22;8269;50.990;4.494;2022-08-02T14:55:45;29.40;50.40
16321;DHT22;8269;50.990;4.494;2022-08-02T14:58:11;29.40;50.40
16321;DHT22;8269;50.990;4.494;2022-08-02T15:00:37;29.60;50.40
16321;DHT22;8269;50.990;4.494;2022-08-02T15:03:03;29.50;50.00
16321;DHT22;8269;50.990;4.494;2022-08-02T15:05:28;29.50;50.00
16321;DHT22;8269;50.990;4.494;2022-08-02T15:07:54;29.60;50.20
16321;DHT22;8269;50.990;4.494;2022-08-02T15:10:20;29.60;51.00
16321;DHT22;8269;50.990;4.494;2022-08-02T15:12:46;29.60;50.40
16321;DHT22;8269;50.990;4.494;2022-08-02T15:15:12;29.60;50.60
16321;DHT22;8269;50.990;4.494;2022-08-02T15:17:37;29.40;50.80
16321;DHT22;8269;50.990;4.494;2022-08-02T15:20:03;29.50;50.90
16321;DHT22;8269;50.990;4.494;2022-08-02T15:22:29;29.60;50.60
16321;DHT22;8269;50.990;4.494;2022-08-02T15:24:55;29.50;51.10
16321;DHT22;8269;50.990;4.494;2022-08-02T15:27:21;29.40;50.80
16321;DHT22;8269;50.990;4.494;2022-08-02T15:29:47;29.50;51.20
16321;DHT22;8269;50.990;4.494;2022-08-02T15:32:13;29.60;51.10
16321;DHT22;8269;50.990;4.494;2022-08-02T15:34:41;29.70;50.60
16321;DHT22;8269;50.990;4.494;2022-08-02T15:37:06;29.80;50.20
16321;DHT22;8269;50.990;4.494;2022-08-02T15:39:32;29.80;49.40
16321;DHT22;8269;50.990;4.494;2022-08-02T15:41:58;29.80;50.30
16321;DHT22;8269;50.990;4.494;2022-08-02T15:44:23;29.90;50.10
16321;DHT22;8269;50.990;4.494;2022-08-02T15:46:49;29.90;50.20
16321;DHT22;8269;50.990;4.494;2022-08-02T15:49:16;29.80;50.30
16321;DHT22;8269;50.990;4.494;2022-08-02T15:51:41;29.80;50.40
16321;DHT22;8269;50.990;4.494;2022-08-02T15:54:07;29.70;50.70
16321;DHT22;8269;50.990;4.494;2022-08-02T15:56:33;29.70;50.40
16321;DHT22;8269;50.990;4.494;2022-08-02T15:58:58;29.50;50.90
16321;DHT22;8269;50.990;4.494;2022-08-02T16:01:24;29.50;51.30
16321;DHT22;8269;50.990;4.494;2022-08-02T16:03:49;29.50;51.20
16321;DHT22;8269;50.990;4.494;2022-08-02T16:06:15;29.50;51.80
16321;DHT22;8269;50.990;4.494;2022-08-02T16:08:41;29.60;51.70
16321;DHT22;8269;50.990;4.494;2022-08-02T16:11:06;29.60;51.60
16321;DHT22;8269;50.990;4.494;2022-08-02T16:13:32;29.60;51.50
16321;DHT22;8269;50.990;4.494;2022-08-02T16:16:16;29.60;51.60
16321;DHT22;8269;50.990;4.494;2022-08-02T16:18:42;29.50;51.50
16321;DHT22;8269;50.990;4.494;2022-08-02T16:21:07;29.50;51.80
16321;DHT22;8269;50.990;4.494;2022-08-02T16:23:34;29.40;52.10
16321;DHT22;8269;50.990;4.494;2022-08-02T16:26:00;29.30;52.00
16321;DHT22;8269;50.990;4.494;2022-08-02T16:28:26;29.20;52.20
16321;DHT22;8269;50.990;4.494;2022-08-02T16:30:51;29.20;52.70
16321;DHT22;8269;50.990;4.494;2022-08-02T16:33:17;29.20;52.20
16321;DHT22;8269;50.990;4.494;2022-08-02T16:35:42;29.20;52.20
16321;DHT22;8269;50.990;4.494;2022-08-02T16:38:08;29.10;52.60
16321;DHT22;8269;50.990;4.494;2022-08-02T16:40:34;29.10;52.80